CFS4662 KPDX-KEUG
Flight info
| Callsign | CFS4662 |
|---|---|
| Flight time | 0h 41m |
| Altitude | 7000 |
| Route | BTG V23 EUG |
| Aircraft | C208/L-SDFGR/C |
Departure
| Time | 2026-05-04 04:21 |
|---|---|
| Airport | Portland International Airport (KPDX) |
Arrival
| Time | 2026-05-04 05:02 |
|---|---|
| Airport | Eugene Airport (KEUG) |
| Time | Latitude | Longitude | Altitude | Speed | Heading |
|---|---|---|---|---|---|
| 2026-05-04 03:54 | 45.58042 | -122.61228 | 26 ft | 0 kts | 304° |
| 2026-05-04 04:06 | 45.58044 | -122.61229 | 13 ft | 1 kts | 348° |
| 2026-05-04 04:06 | 45.58062 | -122.61200 | 28 ft | 5 kts | 48° |
| 2026-05-04 04:06 | 45.58073 | -122.61184 | 26 ft | 2 kts | 46° |
| 2026-05-04 04:07 | 45.58077 | -122.61178 | 29 ft | 0 kts | 46° |
| 2026-05-04 04:09 | 45.58086 | -122.61164 | 27 ft | 6 kts | 46° |
| 2026-05-04 04:10 | 45.58112 | -122.61126 | 29 ft | 6 kts | 39° |
| 2026-05-04 04:10 | 45.58128 | -122.61132 | 28 ft | 0 kts | 313° |
| 2026-05-04 04:11 | 45.58143 | -122.61155 | 26 ft | 7 kts | 315° |
| 2026-05-04 04:11 | 45.58195 | -122.61229 | 28 ft | 13 kts | 315° |
| 2026-05-04 04:11 | 45.58265 | -122.61329 | 26 ft | 12 kts | 314° |
| 2026-05-04 04:12 | 45.58329 | -122.61339 | 28 ft | 12 kts | 40° |
| 2026-05-04 04:12 | 45.58399 | -122.61240 | 29 ft | 16 kts | 45° |
| 2026-05-04 04:12 | 45.58486 | -122.61115 | 27 ft | 18 kts | 45° |
| 2026-05-04 04:12 | 45.58577 | -122.60986 | 26 ft | 19 kts | 45° |
| 2026-05-04 04:13 | 45.58674 | -122.60848 | 27 ft | 19 kts | 45° |
| 2026-05-04 04:13 | 45.58763 | -122.60722 | 26 ft | 16 kts | 44° |
| 2026-05-04 04:13 | 45.58792 | -122.60609 | 26 ft | 14 kts | 119° |
| 2026-05-04 04:13 | 45.58736 | -122.60465 | 26 ft | 18 kts | 119° |
| 2026-05-04 04:14 | 45.58675 | -122.60308 | 26 ft | 20 kts | 120° |
| 2026-05-04 04:14 | 45.58599 | -122.60115 | 27 ft | 24 kts | 118° |
| 2026-05-04 04:14 | 45.58515 | -122.59901 | 27 ft | 24 kts | 119° |
| 2026-05-04 04:14 | 45.58441 | -122.59709 | 27 ft | 21 kts | 118° |
| 2026-05-04 04:15 | 45.58361 | -122.59503 | 26 ft | 25 kts | 119° |
| 2026-05-04 04:15 | 45.58287 | -122.59315 | 27 ft | 20 kts | 119° |
| 2026-05-04 04:15 | 45.58226 | -122.59159 | 27 ft | 16 kts | 119° |
| 2026-05-04 04:15 | 45.58166 | -122.59006 | 27 ft | 19 kts | 119° |
| 2026-05-04 04:16 | 45.58101 | -122.58840 | 27 ft | 18 kts | 120° |
| 2026-05-04 04:16 | 45.58053 | -122.58715 | 27 ft | 15 kts | 119° |
| 2026-05-04 04:16 | 45.57993 | -122.58562 | 27 ft | 17 kts | 119° |
| 2026-05-04 04:16 | 45.57977 | -122.58490 | 27 ft | 0 kts | 73° |
| 2026-05-04 04:17 | 45.57978 | -122.58487 | 27 ft | 2 kts | 71° |
| 2026-05-04 04:18 | 45.58003 | -122.58452 | 27 ft | 8 kts | 27° |
| 2026-05-04 04:18 | 45.58045 | -122.58423 | 27 ft | 8 kts | 13° |
| 2026-05-04 04:18 | 45.58077 | -122.58448 | 27 ft | 0 kts | 298° |
| 2026-05-04 04:19 | 45.58091 | -122.58485 | 27 ft | 17 kts | 299° |
| 2026-05-04 04:19 | 45.58219 | -122.58815 | 28 ft | 58 kts | 299° |
| 2026-05-04 04:19 | 45.58469 | -122.59459 | 39 ft | 87 kts | 297° |
| 2026-05-04 04:19 | 45.58750 | -122.60251 | 184 ft | 90 kts | 295° |
| 2026-05-04 04:20 | 45.58904 | -122.61095 | 351 ft | 92 kts | 267° |
| 2026-05-04 04:20 | 45.58833 | -122.62064 | 329 ft | 107 kts | 266° |
| 2026-05-04 04:20 | 45.58757 | -122.63088 | 491 ft | 106 kts | 266° |
| 2026-05-04 04:20 | 45.58687 | -122.64247 | 549 ft | 123 kts | 267° |
| 2026-05-04 04:21 | 45.58608 | -122.65483 | 752 ft | 125 kts | 266° |
| 2026-05-04 04:21 | 45.58547 | -122.66704 | 946 ft | 122 kts | 267° |
| 2026-05-04 04:21 | 45.58476 | -122.67899 | 1140 ft | 121 kts | 267° |
| 2026-05-04 04:21 | 45.58385 | -122.69097 | 1336 ft | 122 kts | 266° |
| 2026-05-04 04:22 | 45.58277 | -122.70304 | 1546 ft | 123 kts | 267° |
| 2026-05-04 04:22 | 45.58032 | -122.71475 | 1759 ft | 130 kts | 233° |
| 2026-05-04 04:22 | 45.57220 | -122.72022 | 1987 ft | 133 kts | 188° |
| 2026-05-04 04:22 | 45.56313 | -122.72220 | 2214 ft | 131 kts | 189° |
| 2026-05-04 04:23 | 45.55422 | -122.72457 | 2426 ft | 129 kts | 189° |
| 2026-05-04 04:23 | 45.54544 | -122.72689 | 2645 ft | 128 kts | 189° |
| 2026-05-04 04:23 | 45.53672 | -122.72922 | 2853 ft | 127 kts | 189° |
| 2026-05-04 04:23 | 45.52804 | -122.73155 | 3064 ft | 127 kts | 189° |
| 2026-05-04 04:24 | 45.51927 | -122.73393 | 3260 ft | 130 kts | 188° |
| 2026-05-04 04:24 | 45.51038 | -122.73632 | 3435 ft | 130 kts | 188° |
| 2026-05-04 04:24 | 45.50164 | -122.73870 | 3631 ft | 126 kts | 187° |
| 2026-05-04 04:24 | 45.49310 | -122.74101 | 3821 ft | 124 kts | 187° |
| 2026-05-04 04:25 | 45.48475 | -122.74326 | 3998 ft | 124 kts | 187° |
| 2026-05-04 04:25 | 45.47615 | -122.74558 | 4177 ft | 125 kts | 187° |
| 2026-05-04 04:25 | 45.46755 | -122.74791 | 4355 ft | 126 kts | 187° |
| 2026-05-04 04:25 | 45.45886 | -122.75026 | 4529 ft | 128 kts | 187° |
| 2026-05-04 04:26 | 45.45024 | -122.75259 | 4708 ft | 128 kts | 187° |
| 2026-05-04 04:26 | 45.44146 | -122.75497 | 4881 ft | 129 kts | 187° |
| 2026-05-04 04:26 | 45.43262 | -122.75736 | 5054 ft | 129 kts | 187° |
| 2026-05-04 04:26 | 45.42379 | -122.75974 | 5232 ft | 129 kts | 187° |
| 2026-05-04 04:27 | 45.41499 | -122.76212 | 5403 ft | 129 kts | 187° |
| 2026-05-04 04:27 | 45.40617 | -122.76450 | 5578 ft | 129 kts | 187° |
| 2026-05-04 04:27 | 45.39734 | -122.76687 | 5752 ft | 129 kts | 187° |
| 2026-05-04 04:27 | 45.38846 | -122.76927 | 5928 ft | 130 kts | 187° |
| 2026-05-04 04:28 | 45.37958 | -122.77168 | 6102 ft | 130 kts | 187° |
| 2026-05-04 04:28 | 45.37074 | -122.77405 | 6273 ft | 129 kts | 187° |
| 2026-05-04 04:28 | 45.36196 | -122.77641 | 6438 ft | 128 kts | 187° |
| 2026-05-04 04:28 | 45.35319 | -122.77876 | 6604 ft | 128 kts | 187° |
| 2026-05-04 04:29 | 45.34444 | -122.78112 | 6765 ft | 128 kts | 188° |
| 2026-05-04 04:29 | 45.33571 | -122.78347 | 6932 ft | 127 kts | 187° |
| 2026-05-04 04:29 | 45.32687 | -122.78583 | 7016 ft | 134 kts | 188° |
| 2026-05-04 04:29 | 45.31733 | -122.78843 | 7031 ft | 144 kts | 188° |
| 2026-05-04 04:30 | 45.30709 | -122.79121 | 7009 ft | 154 kts | 188° |
| 2026-05-04 04:30 | 45.29645 | -122.79408 | 7007 ft | 157 kts | 188° |
| 2026-05-04 04:30 | 45.28560 | -122.79699 | 7009 ft | 160 kts | 188° |
| 2026-05-04 04:30 | 45.27462 | -122.79994 | 7011 ft | 161 kts | 188° |
| 2026-05-04 04:31 | 45.26366 | -122.80288 | 7008 ft | 160 kts | 188° |
| 2026-05-04 04:31 | 45.25271 | -122.80581 | 7010 ft | 160 kts | 188° |
| 2026-05-04 04:31 | 45.24178 | -122.80874 | 7010 ft | 160 kts | 188° |
| 2026-05-04 04:31 | 45.23083 | -122.81168 | 7011 ft | 160 kts | 188° |
| 2026-05-04 04:32 | 45.21989 | -122.81460 | 7009 ft | 160 kts | 188° |
| 2026-05-04 04:32 | 45.20895 | -122.81754 | 7009 ft | 160 kts | 188° |
| 2026-05-04 04:32 | 45.19801 | -122.82046 | 7005 ft | 160 kts | 188° |
| 2026-05-04 04:32 | 45.18708 | -122.82339 | 7006 ft | 160 kts | 188° |
| 2026-05-04 04:33 | 45.17613 | -122.82631 | 7008 ft | 160 kts | 188° |
| 2026-05-04 04:33 | 45.16519 | -122.82923 | 7007 ft | 160 kts | 188° |
| 2026-05-04 04:33 | 45.15424 | -122.83216 | 7006 ft | 160 kts | 188° |
| 2026-05-04 04:33 | 45.14329 | -122.83508 | 7004 ft | 160 kts | 188° |
| 2026-05-04 04:34 | 45.13235 | -122.83801 | 7003 ft | 160 kts | 188° |
| 2026-05-04 04:34 | 45.12141 | -122.84092 | 7003 ft | 160 kts | 188° |
| 2026-05-04 04:34 | 45.11047 | -122.84384 | 7005 ft | 160 kts | 187° |
| 2026-05-04 04:34 | 45.09961 | -122.84728 | 7003 ft | 161 kts | 193° |
| 2026-05-04 04:35 | 45.08884 | -122.85161 | 6999 ft | 161 kts | 192° |
| 2026-05-04 04:35 | 45.07807 | -122.85577 | 6997 ft | 160 kts | 192° |
| 2026-05-04 04:35 | 45.06731 | -122.85993 | 6985 ft | 160 kts | 192° |
| 2026-05-04 04:35 | 45.05661 | -122.86410 | 6993 ft | 159 kts | 192° |
| 2026-05-04 04:36 | 45.04592 | -122.86825 | 6991 ft | 159 kts | 192° |
| 2026-05-04 04:36 | 45.03525 | -122.87241 | 6992 ft | 159 kts | 192° |
| 2026-05-04 04:36 | 45.02458 | -122.87656 | 6992 ft | 159 kts | 192° |
| 2026-05-04 04:36 | 45.01391 | -122.88070 | 6989 ft | 159 kts | 192° |
| 2026-05-04 04:37 | 44.98186 | -122.89317 | 6994 ft | 159 kts | 192° |
| 2026-05-04 04:37 | 44.97117 | -122.89732 | 6994 ft | 159 kts | 192° |
| 2026-05-04 04:38 | 44.96049 | -122.90146 | 6994 ft | 159 kts | 192° |
| 2026-05-04 04:38 | 44.94980 | -122.90562 | 6991 ft | 159 kts | 192° |
| 2026-05-04 04:38 | 44.93910 | -122.90976 | 6992 ft | 160 kts | 192° |
| 2026-05-04 04:38 | 44.92839 | -122.91392 | 6992 ft | 160 kts | 192° |
| 2026-05-04 04:39 | 44.91767 | -122.91808 | 6994 ft | 160 kts | 192° |
| 2026-05-04 04:39 | 44.90696 | -122.92223 | 6991 ft | 160 kts | 192° |
| 2026-05-04 04:39 | 44.89628 | -122.92637 | 6991 ft | 159 kts | 192° |
| 2026-05-04 04:39 | 44.88578 | -122.93044 | 6993 ft | 159 kts | 191° |
| 2026-05-04 04:40 | 44.87511 | -122.93458 | 6994 ft | 159 kts | 191° |
| 2026-05-04 04:40 | 44.86440 | -122.93873 | 6991 ft | 160 kts | 192° |
| 2026-05-04 04:40 | 44.85370 | -122.94287 | 6991 ft | 159 kts | 191° |
| 2026-05-04 04:40 | 44.84300 | -122.94700 | 6993 ft | 160 kts | 191° |
| 2026-05-04 04:41 | 44.83230 | -122.95114 | 6992 ft | 159 kts | 191° |
| 2026-05-04 04:41 | 44.82160 | -122.95528 | 6993 ft | 160 kts | 191° |
| 2026-05-04 04:41 | 44.81091 | -122.95942 | 6996 ft | 159 kts | 191° |
| 2026-05-04 04:41 | 44.80021 | -122.96354 | 6995 ft | 159 kts | 191° |
| 2026-05-04 04:42 | 44.78952 | -122.96768 | 6996 ft | 160 kts | 191° |
| 2026-05-04 04:42 | 44.77876 | -122.97183 | 6996 ft | 160 kts | 191° |
| 2026-05-04 04:42 | 44.76801 | -122.97598 | 6996 ft | 160 kts | 191° |
| 2026-05-04 04:42 | 44.75728 | -122.98012 | 6997 ft | 160 kts | 191° |
| 2026-05-04 04:43 | 44.74656 | -122.98425 | 6994 ft | 160 kts | 191° |
| 2026-05-04 04:43 | 44.73586 | -122.98838 | 6997 ft | 159 kts | 191° |
| 2026-05-04 04:43 | 44.72517 | -122.99250 | 6996 ft | 159 kts | 191° |
| 2026-05-04 04:43 | 44.71448 | -122.99661 | 6997 ft | 159 kts | 191° |
| 2026-05-04 04:44 | 44.70380 | -123.00072 | 6995 ft | 159 kts | 191° |
| 2026-05-04 04:44 | 44.69312 | -123.00484 | 6998 ft | 159 kts | 191° |
| 2026-05-04 04:44 | 44.68243 | -123.00894 | 6997 ft | 159 kts | 191° |
| 2026-05-04 04:44 | 44.67172 | -123.01308 | 6997 ft | 160 kts | 191° |
| 2026-05-04 04:45 | 44.66100 | -123.01718 | 7000 ft | 160 kts | 191° |
| 2026-05-04 04:45 | 44.65029 | -123.02129 | 7014 ft | 159 kts | 191° |
| 2026-05-04 04:45 | 44.63966 | -123.02537 | 7016 ft | 158 kts | 191° |
| 2026-05-04 04:47 | 44.57587 | -123.04981 | 7022 ft | 159 kts | 191° |
| 2026-05-04 04:47 | 44.56521 | -123.05390 | 7021 ft | 159 kts | 190° |
| 2026-05-04 04:47 | 44.55458 | -123.05797 | 7023 ft | 159 kts | 190° |
| 2026-05-04 04:47 | 44.54398 | -123.06202 | 7023 ft | 159 kts | 190° |
| 2026-05-04 04:48 | 44.53330 | -123.06611 | 7023 ft | 159 kts | 190° |
| 2026-05-04 04:49 | 44.49058 | -123.08243 | 7023 ft | 159 kts | 190° |
| 2026-05-04 04:49 | 44.47991 | -123.08650 | 7026 ft | 159 kts | 190° |
| 2026-05-04 04:49 | 44.46924 | -123.09057 | 7026 ft | 159 kts | 190° |
| 2026-05-04 04:49 | 44.45858 | -123.09464 | 7027 ft | 159 kts | 190° |
| 2026-05-04 04:50 | 44.44792 | -123.09870 | 7029 ft | 159 kts | 190° |
| 2026-05-04 04:50 | 44.43728 | -123.10277 | 7028 ft | 159 kts | 190° |
| 2026-05-04 04:50 | 44.42664 | -123.10681 | 7024 ft | 158 kts | 190° |
| 2026-05-04 04:50 | 44.41602 | -123.11086 | 7028 ft | 158 kts | 190° |
| 2026-05-04 04:51 | 44.40537 | -123.11492 | 7029 ft | 158 kts | 190° |
| 2026-05-04 04:51 | 44.39475 | -123.11896 | 7025 ft | 158 kts | 190° |
| 2026-05-04 04:51 | 44.38411 | -123.12302 | 7028 ft | 158 kts | 190° |
| 2026-05-04 04:51 | 44.37351 | -123.12704 | 7027 ft | 158 kts | 190° |
| 2026-05-04 04:52 | 44.36288 | -123.13109 | 7024 ft | 158 kts | 190° |
| 2026-05-04 04:52 | 44.35228 | -123.13511 | 7026 ft | 158 kts | 190° |
| 2026-05-04 04:52 | 44.34181 | -123.13910 | 7026 ft | 158 kts | 190° |
| 2026-05-04 04:52 | 44.33121 | -123.14312 | 7023 ft | 158 kts | 190° |
| 2026-05-04 04:53 | 44.32063 | -123.14714 | 7025 ft | 158 kts | 189° |
| 2026-05-04 04:53 | 44.31005 | -123.15116 | 7033 ft | 158 kts | 190° |
| 2026-05-04 04:53 | 44.29938 | -123.15518 | 6946 ft | 163 kts | 190° |
| 2026-05-04 04:53 | 44.28850 | -123.15939 | 6760 ft | 155 kts | 191° |
| 2026-05-04 04:54 | 44.27857 | -123.16325 | 6541 ft | 145 kts | 188° |
| 2026-05-04 04:54 | 44.26864 | -123.16704 | 6348 ft | 153 kts | 196° |
| 2026-05-04 04:54 | 44.26006 | -123.17666 | 6161 ft | 164 kts | 222° |
| 2026-05-04 04:54 | 44.25228 | -123.18848 | 5969 ft | 166 kts | 222° |
| 2026-05-04 04:55 | 44.24453 | -123.20023 | 5724 ft | 161 kts | 222° |
| 2026-05-04 04:55 | 44.23718 | -123.21150 | 5407 ft | 153 kts | 222° |
| 2026-05-04 04:55 | 44.23004 | -123.22238 | 5098 ft | 154 kts | 222° |
| 2026-05-04 04:55 | 44.22261 | -123.23346 | 4814 ft | 158 kts | 222° |
| 2026-05-04 04:56 | 44.21500 | -123.24472 | 4526 ft | 161 kts | 222° |
| 2026-05-04 04:56 | 44.20722 | -123.25596 | 4233 ft | 161 kts | 218° |
| 2026-05-04 04:56 | 44.19733 | -123.26173 | 3944 ft | 154 kts | 183° |
| 2026-05-04 04:56 | 44.18685 | -123.26341 | 3652 ft | 149 kts | 182° |
| 2026-05-04 04:57 | 44.17673 | -123.26499 | 3411 ft | 144 kts | 182° |
| 2026-05-04 04:57 | 44.16683 | -123.26640 | 3164 ft | 143 kts | 182° |
| 2026-05-04 04:57 | 44.15693 | -123.26769 | 2906 ft | 143 kts | 182° |
| 2026-05-04 04:57 | 44.14700 | -123.26888 | 2656 ft | 143 kts | 182° |
| 2026-05-04 04:58 | 44.13707 | -123.26998 | 2410 ft | 143 kts | 182° |
| 2026-05-04 04:58 | 44.12717 | -123.27099 | 2154 ft | 142 kts | 182° |
| 2026-05-04 04:58 | 44.11737 | -123.27195 | 1901 ft | 140 kts | 182° |
| 2026-05-04 04:58 | 44.10809 | -123.27281 | 1838 ft | 126 kts | 182° |
| 2026-05-04 04:59 | 44.09974 | -123.27356 | 1833 ft | 114 kts | 182° |
| 2026-05-04 04:59 | 44.09216 | -123.27427 | 1830 ft | 105 kts | 182° |
| 2026-05-04 04:59 | 44.08524 | -123.27490 | 1837 ft | 97 kts | 175° |
| 2026-05-04 04:59 | 44.08001 | -123.27015 | 1782 ft | 95 kts | 114° |
| 2026-05-04 05:00 | 44.07798 | -123.26164 | 1770 ft | 95 kts | 94° |
| 2026-05-04 05:00 | 44.07764 | -123.25231 | 1665 ft | 95 kts | 83° |
| 2026-05-04 05:00 | 44.07998 | -123.23273 | 1269 ft | 107 kts | 70° |
| 2026-05-04 05:01 | 44.08371 | -123.22397 | 1077 ft | 106 kts | 46° |
| 2026-05-04 05:01 | 44.08993 | -123.21917 | 907 ft | 97 kts | 9° |
| 2026-05-04 05:01 | 44.09617 | -123.21847 | 744 ft | 87 kts | 351° |
| 2026-05-04 05:01 | 44.10232 | -123.21869 | 590 ft | 88 kts | 354° |
| 2026-05-04 05:02 | 44.10843 | -123.21887 | 477 ft | 88 kts | 353° |
| 2026-05-04 05:02 | 44.11461 | -123.21891 | 368 ft | 88 kts | 353° |
| 2026-05-04 05:02 | 44.12006 | -123.21894 | 357 ft | 69 kts | 359° |
| 2026-05-04 05:02 | 44.12422 | -123.21898 | 359 ft | 31 kts | 358° |
| 2026-05-04 05:03 | 44.12488 | -123.21788 | 355 ft | 20 kts | 89° |
| 2026-05-04 05:03 | 44.12426 | -123.21710 | 359 ft | 16 kts | 182° |
| 2026-05-04 05:04 | 44.11967 | -123.21702 | 357 ft | 20 kts | 179° |
| 2026-05-04 05:04 | 44.11830 | -123.21700 | 356 ft | 20 kts | 179° |
| 2026-05-04 05:04 | 44.11694 | -123.21698 | 355 ft | 19 kts | 180° |
| 2026-05-04 05:06 | 44.11162 | -123.21458 | 369 ft | 1 kts | 194° |
| 2026-05-04 05:06 | 44.11163 | -123.21458 | 369 ft | 0 kts | 194° |
| 2026-05-04 05:07 | 44.11162 | -123.21458 | 369 ft | 0 kts | 194° |